Time;durP1;ratioP1;P1;durP2;ratioP2;P2;SDS_P1;SDS_P2;PMS_P1;PMS_P2;Temp;Humidity;BMP_temperature;BMP_pressure;BME280_temperature;BME280_humidity;BME280_pressure;Samples;Min_cycle;Max_cycle;Signal;HPM_P1;HPM_P2
2022/02/26 00:01:29;;;;;;;16.50;8.70;;;;;;;2.12;45.74;100794.60;117325;1185;22906;-54
2022/02/26 00:03:58;;;;;;;17.20;9.20;;;;;;;2.06;45.78;100798.08;117387;1182;24215;-54
2022/02/26 00:06:26;;;;;;;16.90;9.20;;;;;;;2.01;45.76;100799.48;117361;1182;23614;-54
2022/02/26 00:08:55;;;;;;;19.00;9.30;;;;;;;1.97;45.78;100799.90;117326;1186;23460;-54
2022/02/26 00:11:23;;;;;;;14.70;8.70;;;;;;;1.93;45.80;100800.65;117314;1186;23536;-54
2022/02/26 00:13:52;;;;;;;13.90;8.80;;;;;;;1.90;45.82;100806.98;117503;1181;21878;-53
2022/02/26 00:16:20;;;;;;;16.10;9.70;;;;;;;1.86;45.80;100811.52;117320;1182;23499;-59
2022/02/26 00:18:48;;;;;;;14.50;8.60;;;;;;;1.84;45.91;100815.09;117363;1184;21961;-59
2022/02/26 00:21:16;;;;;;;15.70;9.00;;;;;;;1.83;45.88;100820.23;117368;1181;23458;-54
2022/02/26 00:23:45;;;;;;;14.50;9.30;;;;;;;1.80;45.99;100818.92;117352;1182;22979;-54
2022/02/26 00:26:14;;;;;;;14.50;8.80;;;;;;;1.77;45.78;100823.02;117346;1182;23648;-54
2022/02/26 00:28:42;;;;;;;14.40;8.00;;;;;;;1.74;45.92;100826.58;117346;1182;23540;-60
2022/02/26 00:31:10;;;;;;;16.10;9.50;;;;;;;1.73;45.92;100828.27;117422;1185;21852;-59
2022/02/26 00:33:38;;;;;;;15.30;9.10;;;;;;;1.72;45.60;100832.39;117418;1183;22335;-59
2022/02/26 00:36:07;;;;;;;15.80;9.40;;;;;;;1.66;45.78;100830.11;117341;1183;22879;-59
2022/02/26 00:38:36;;;;;;;16.70;8.80;;;;;;;1.60;45.59;100827.34;117379;1184;21859;-59
2022/02/26 00:41:04;;;;;;;17.20;9.90;;;;;;;1.59;45.57;100831.11;117363;1184;21855;-53
2022/02/26 00:43:32;;;;;;;15.70;8.90;;;;;;;1.59;45.99;100827.84;117357;1185;24145;-59
2022/02/26 00:46:01;;;;;;;16.40;9.20;;;;;;;1.60;45.85;100830.63;117382;1182;23465;-59
2022/02/26 00:51:16;;;;;;;17.50;9.00;;;;;;;1.49;45.90;100829.60;117340;1185;23422;-59
2022/02/26 00:53:45;;;;;;;17.60;9.20;;;;;;;1.45;45.61;100834.48;117339;1182;21855;-59
2022/02/26 00:56:13;;;;;;;15.30;8.60;;;;;;;1.42;46.01;100833.16;117351;1183;22931;-54
2022/02/26 00:58:42;;;;;;;17.20;9.20;;;;;;;1.40;45.91;100840.52;117355;1184;21858;-60
2022/02/26 01:01:10;;;;;;;16.20;10.00;;;;;;;1.38;45.89;100840.81;117321;1182;22928;-59
2022/02/26 01:03:39;;;;;;;14.60;9.50;;;;;;;1.37;45.78;100840.59;117330;1188;21854;-54
2022/02/26 01:06:08;;;;;;;19.90;9.80;;;;;;;1.36;45.82;100837.98;117388;1185;22947;-59
2022/02/26 01:08:37;;;;;;;14.50;9.20;;;;;;;1.34;45.72;100836.02;117320;1185;24254;-54
2022/02/26 01:11:06;;;;;;;13.90;8.50;;;;;;;1.30;45.80;100840.39;117357;1186;24135;-60
2022/02/26 01:13:34;;;;;;;16.30;9.10;;;;;;;1.27;45.60;100840.65;117340;1181;24146;-59
2022/02/26 01:16:03;;;;;;;16.00;9.50;;;;;;;1.22;45.52;100838.92;117348;1185;22915;-59
2022/02/26 01:18:31;;;;;;;17.90;9.90;;;;;;;1.18;45.54;100836.89;117392;1184;23477;-59
2022/02/26 01:21:00;;;;;;;16.20;9.90;;;;;;;1.15;45.73;100842.15;117360;1185;22671;-59
2022/02/26 01:23:28;;;;;;;18.10;9.70;;;;;;;1.13;45.85;100840.54;117389;1183;23434;-54
2022/02/26 01:25:58;;;;;;;18.40;10.00;;;;;;;1.05;45.96;100841.30;117404;1185;21857;-59
2022/02/26 01:28:30;;;;;;;20.50;10.60;;;;;;;1.00;45.95;100838.03;117446;1185;21873;-53
2022/02/26 01:30:59;;;;;;;18.20;10.00;;;;;;;1.05;45.91;100840.10;117370;1185;21855;-58
2022/02/26 01:33:29;;;;;;;21.30;11.30;;;;;;;1.08;45.61;100840.20;117383;1183;23841;-59
2022/02/26 01:36:03;;;;;;;18.30;11.10;;;;;;;1.00;45.92;100844.94;117343;1182;24247;-59
2022/02/26 01:38:31;;;;;;;22.30;11.40;;;;;;;0.98;45.98;100847.64;117348;1185;23560;-53
2022/02/26 01:41:03;;;;;;;17.40;10.60;;;;;;;0.97;46.05;100848.95;117333;1185;23458;-59
2022/02/26 01:43:33;;;;;;;15.20;9.70;;;;;;;0.96;46.43;100850.31;117334;1182;22968;-55
2022/02/26 01:46:05;;;;;;;16.60;9.40;;;;;;;0.93;46.02;100854.01;117413;1182;24156;-59
2022/02/26 01:48:35;;;;;;;18.10;10.30;;;;;;;0.88;46.25;100852.97;117378;1180;22911;-54
2022/02/26 01:51:06;;;;;;;19.30;10.60;;;;;;;0.86;46.18;100854.14;117354;1183;22909;-54
2022/02/26 01:53:34;;;;;;;17.00;10.60;;;;;;;0.87;46.29;100853.48;117371;1185;22912;-54
2022/02/26 01:56:04;;;;;;;17.70;10.70;;;;;;;0.94;46.14;100846.61;117381;1182;21863;-59
2022/02/26 01:58:33;;;;;;;18.50;10.20;;;;;;;0.95;46.13;100848.38;117360;1184;22912;-54
2022/02/26 02:01:02;;;;;;;18.60;10.20;;;;;;;0.94;46.34;100852.48;117365;1182;22964;-55
2022/02/26 02:03:32;;;;;;;18.10;10.40;;;;;;;0.92;46.19;100850.34;117389;1185;22925;-59
2022/02/26 02:06:00;;;;;;;15.30;9.60;;;;;;;0.83;46.44;100857.14;117331;1184;22916;-59
2022/02/26 02:08:28;;;;;;;18.40;11.70;;;;;;;0.82;46.58;100859.16;117393;1182;22610;-53
2022/02/26 02:10:57;;;;;;;18.60;10.80;;;;;;;0.80;46.57;100864.97;117363;1185;24130;-53
2022/02/26 02:13:25;;;;;;;17.20;9.90;;;;;;;0.82;46.52;100865.39;117356;1184;23521;-59
2022/02/26 02:15:54;;;;;;;17.50;10.30;;;;;;;0.84;46.46;100866.50;117337;1183;24306;-59
2022/02/26 02:18:22;;;;;;;15.80;9.70;;;;;;;0.78;46.42;100870.77;117335;1187;21857;-55
2022/02/26 02:20:50;;;;;;;17.60;9.80;;;;;;;0.75;46.66;100874.11;117363;1182;21873;-54
2022/02/26 02:23:19;;;;;;;17.00;10.00;;;;;;;0.71;46.34;100876.60;117409;1183;21855;-53
2022/02/26 02:25:47;;;;;;;15.30;9.20;;;;;;;0.70;46.44;100880.15;117343;1182;23433;-54
2022/02/26 02:28:15;;;;;;;18.60;9.90;;;;;;;0.66;46.61;100879.66;117325;1185;21853;-54
2022/02/26 02:30:43;;;;;;;14.40;9.30;;;;;;;0.63;46.59;100882.84;117361;1185;21878;-54
2022/02/26 02:33:12;;;;;;;15.90;9.50;;;;;;;0.59;46.72;100886.48;117362;1185;22620;-51
2022/02/26 02:35:41;;;;;;;17.60;10.20;;;;;;;0.54;46.44;100886.68;117450;1176;24359;-57
2022/02/26 02:38:11;;;;;;;14.60;9.30;;;;;;;0.50;46.52;100890.84;117392;1183;24169;-51
2022/02/26 02:40:40;;;;;;;15.70;9.90;;;;;;;0.47;46.48;100891.57;117379;1185;24159;-51
2022/02/26 02:43:09;;;;;;;15.90;9.90;;;;;;;0.44;46.35;100899.61;117376;1185;21958;-58
2022/02/26 02:45:38;;;;;;;16.90;9.20;;;;;;;0.42;46.62;100898.66;117366;1184;23630;-52
2022/02/26 02:48:06;;;;;;;16.50;9.00;;;;;;;0.38;46.33;100898.88;117429;1185;23615;-52
2022/02/26 02:50:35;;;;;;;15.20;9.50;;;;;;;0.34;46.32;100900.93;117403;1182;21855;-57
2022/02/26 02:53:03;;;;;;;17.90;10.40;;;;;;;0.28;46.37;100903.34;117351;1182;21844;-52
2022/02/26 02:55:31;;;;;;;16.70;10.80;;;;;;;0.25;46.43;100904.77;117363;1182;23114;-52
2022/02/26 02:58:00;;;;;;;20.20;12.70;;;;;;;0.26;46.84;100909.80;117393;1183;23090;-57
2022/02/26 03:00:29;;;;;;;19.90;11.50;;;;;;;0.33;46.87;100910.41;117404;1183;22616;-58
2022/02/26 03:02:57;;;;;;;19.90;11.60;;;;;;;0.48;47.18;100909.40;117472;1185;21846;-57
2022/02/26 03:05:27;;;;;;;22.00;12.90;;;;;;;0.60;47.16;100915.39;117294;1182;22809;-57
2022/02/26 03:07:55;;;;;;;21.00;11.90;;;;;;;0.70;47.19;100915.06;117361;1184;22986;-57
2022/02/26 03:10:43;;;;;;;22.80;12.10;;;;;;;0.81;47.20;100919.24;117250;1183;24814;-52
2022/02/26 03:13:11;;;;;;;22.80;13.00;;;;;;;0.85;47.24;100924.77;117348;1182;21865;-52
2022/02/26 03:15:39;;;;;;;20.50;12.10;;;;;;;0.91;47.08;100926.16;117316;1182;24156;-52
2022/02/26 03:18:07;;;;;;;22.50;12.80;;;;;;;0.98;47.18;100923.82;117325;1185;24146;-53
2022/02/26 03:20:35;;;;;;;20.50;12.30;;;;;;;1.03;47.06;100921.94;117302;1182;22613;-58
2022/02/26 03:23:04;;;;;;;21.40;12.20;;;;;;;1.08;47.23;100925.06;117343;1184;22901;-52
2022/02/26 03:25:32;;;;;;;20.20;11.50;;;;;;;1.12;47.31;100930.00;117268;1185;24245;-57
2022/02/26 03:28:01;;;;;;;20.10;12.50;;;;;;;1.15;47.34;100930.30;117406;1182;22458;-53
2022/02/26 03:30:33;;;;;;;20.90;12.50;;;;;;;1.17;47.22;100935.91;117312;1185;21853;-52
2022/02/26 03:33:01;;;;;;;18.70;11.80;;;;;;;1.18;47.34;100935.92;117360;1182;23147;-54
2022/02/26 03:35:29;;;;;;;21.90;12.90;;;;;;;1.18;47.30;100935.77;117306;1184;22977;-57
2022/02/26 03:37:57;;;;;;;19.30;11.20;;;;;;;1.17;47.53;100937.98;117313;1183;24138;-53
2022/02/26 03:40:26;;;;;;;18.20;11.70;;;;;;;1.14;47.27;100943.41;117126;1184;21865;-53
2022/02/26 03:42:54;;;;;;;18.60;11.10;;;;;;;1.12;47.54;100944.55;117300;1183;24146;-58
2022/02/26 03:45:22;;;;;;;18.40;11.10;;;;;;;1.11;47.30;100943.11;117292;1185;23509;-58
2022/02/26 03:47:50;;;;;;;18.70;10.90;;;;;;;1.10;47.28;100943.60;117314;1180;25734;-53
2022/02/26 03:50:22;;;;;;;18.70;11.70;;;;;;;1.11;47.29;100940.20;117261;1181;23554;-52
2022/02/26 03:52:51;;;;;;;20.50;11.80;;;;;;;1.09;47.35;100938.06;117307;1183;23465;-53
2022/02/26 03:55:19;;;;;;;19.70;12.90;;;;;;;1.05;47.31;100939.98;117310;1182;23540;-57
2022/02/26 03:57:47;;;;;;;21.60;13.40;;;;;;;1.00;47.30;100938.61;117432;1185;21862;-58
2022/02/26 04:00:16;;;;;;;21.00;13.10;;;;;;;0.98;47.38;100939.55;117274;1183;24147;-58
2022/02/26 04:02:44;;;;;;;21.90;12.60;;;;;;;1.01;47.28;100938.82;117338;1184;23441;-53
2022/02/26 04:05:12;;;;;;;23.20;13.10;;;;;;;1.04;47.46;100942.02;117286;1183;24300;-58
2022/02/26 04:07:42;;;;;;;21.90;12.90;;;;;;;1.10;47.41;100946.20;117307;1184;22938;-53
2022/02/26 04:10:10;;;;;;;21.10;13.00;;;;;;;1.07;47.30;100953.01;117282;1185;23476;-58
2022/02/26 04:12:39;;;;;;;25.70;14.10;;;;;;;1.07;47.42;100954.75;117290;1184;23445;-53
2022/02/26 04:15:08;;;;;;;19.30;11.90;;;;;;;1.09;47.54;100955.35;117351;1180;22866;-58
2022/02/26 04:17:49;;;;;;;24.20;12.40;;;;;;;1.13;47.34;100958.23;117217;1182;24160;-53
2022/02/26 04:20:17;;;;;;;20.10;12.00;;;;;;;1.17;47.73;100963.38;117313;1185;21855;-52
2022/02/26 04:22:48;;;;;;;20.80;13.00;;;;;;;1.19;47.61;100967.24;117310;1185;23515;-53
2022/02/26 04:25:16;;;;;;;27.20;12.50;;;;;;;1.25;47.79;100969.89;117264;1182;21855;-53
2022/02/26 04:27:44;;;;;;;20.80;13.00;;;;;;;1.31;47.70;100980.64;117336;1180;23460;-52
2022/02/26 04:30:15;;;;;;;;;;;;;;;1.31;47.90;100981.53;117324;1181;23086;-58
2022/02/26 04:32:43;;;;;;;25.40;13.50;;;;;;;1.35;47.59;100986.83;117320;1181;23525;-58
2022/02/26 04:35:12;;;;;;;23.90;13.70;;;;;;;1.37;47.66;100985.71;117528;1185;21860;-52
2022/02/26 04:37:40;;;;;;;24.00;13.60;;;;;;;1.39;47.69;100986.77;117305;1181;24149;-58
2022/02/26 04:40:10;;;;;;;22.00;13.70;;;;;;;1.41;47.71;100989.79;117296;1184;22961;-52
2022/02/26 04:42:38;;;;;;;23.20;13.30;;;;;;;1.43;47.73;100993.01;117321;1185;21856;-52
2022/02/26 04:45:07;;;;;;;22.50;13.30;;;;;;;1.43;47.68;100999.73;117280;1183;21862;-54
2022/02/26 04:47:37;;;;;;;22.20;13.90;;;;;;;1.40;47.93;100999.48;117348;1185;21867;-52
2022/02/26 04:50:06;;;;;;;20.40;13.20;;;;;;;1.37;47.92;101006.11;117310;1180;22740;-52
2022/02/26 04:52:34;;;;;;;23.80;13.40;;;;;;;1.35;47.95;101006.54;117323;1185;24146;-52
2022/02/26 04:55:03;;;;;;;22.70;13.20;;;;;;;1.31;47.77;101009.34;117371;1184;24699;-58
2022/02/26 04:57:31;;;;;;;24.20;13.60;;;;;;;1.30;48.15;101015.73;117354;1182;22932;-52
2022/02/26 05:00:10;;;;;;;26.10;14.70;;;;;;;1.30;48.01;101017.81;117315;1184;23534;-52
2022/02/26 05:02:39;;;;;;;27.30;14.50;;;;;;;1.33;47.87;101020.33;117355;1183;22910;-55
2022/02/26 05:05:08;;;;;;;23.80;15.00;;;;;;;1.37;47.99;101023.73;117270;1185;22915;-58
2022/02/26 05:07:36;;;;;;;25.10;15.60;;;;;;;1.47;48.03;101034.98;117280;1185;24286;-54
2022/02/26 05:10:05;;;;;;;26.70;14.90;;;;;;;1.46;47.83;101041.05;117358;1184;21856;-58
2022/02/26 05:12:53;;;;;;;26.90;15.80;;;;;;;1.45;48.13;101045.66;117290;1185;22310;-52
2022/02/26 05:15:22;;;;;;;28.60;16.90;;;;;;;1.50;48.21;101042.36;117336;1182;21858;-54
2022/02/26 05:17:51;;;;;;;31.80;17.40;;;;;;;1.47;48.29;101048.14;117370;1182;24222;-59
2022/02/26 05:20:19;;;;;;;23.50;13.50;;;;;;;1.51;48.56;101045.17;117379;1185;22013;-53
2022/02/26 05:22:48;;;;;;;27.80;16.70;;;;;;;1.58;48.44;101045.74;118579;1182;23454;-58
2022/02/26 05:25:16;;;;;;;26.00;16.30;;;;;;;1.63;48.74;101049.23;117326;1185;22657;-59
2022/02/26 05:27:45;;;;;;;26.00;16.20;;;;;;;1.72;48.60;101052.65;117290;1182;23435;-53
2022/02/26 05:30:13;;;;;;;24.60;16.00;;;;;;;1.82;48.50;101054.55;117352;1182;22828;-53
2022/02/26 05:32:41;;;;;;;27.10;16.70;;;;;;;1.90;48.80;101051.17;117274;1181;22912;-58
2022/02/26 05:35:10;;;;;;;26.80;16.60;;;;;;;1.99;48.58;101054.23;117326;1184;21965;-53
2022/02/26 05:37:38;;;;;;;30.10;17.30;;;;;;;2.10;48.79;101050.97;117443;1185;21861;-54
2022/02/26 05:40:08;;;;;;;27.60;18.30;;;;;;;2.21;48.91;101060.86;117380;1183;21855;-59
2022/02/26 05:42:36;;;;;;;28.40;17.80;;;;;;;2.31;48.87;101062.22;117380;1185;22909;-58
2022/02/26 05:45:09;;;;;;;28.60;16.60;;;;;;;2.41;49.01;101064.27;117352;1185;23459;-54
2022/02/26 05:47:37;;;;;;;36.20;22.20;;;;;;;2.53;48.95;101070.17;117376;1185;21864;-59
2022/02/26 05:50:06;;;;;;;39.60;23.80;;;;;;;2.64;49.02;101072.61;117399;1184;21856;-59
2022/02/26 05:52:35;;;;;;;39.30;26.40;;;;;;;2.75;49.03;101071.04;117337;1185;21948;-59
2022/02/26 05:55:04;;;;;;;39.10;27.60;;;;;;;2.85;49.13;101069.42;117309;1182;24133;-55
2022/02/26 05:57:33;;;;;;;45.40;29.00;;;;;;;2.95;49.20;101072.16;117302;1185;22821;-54
2022/02/26 06:00:03;;;;;;;37.80;24.70;;;;;;;3.06;49.16;101077.67;117293;1184;21858;-55
2022/02/26 06:02:31;;;;;;;34.30;23.20;;;;;;;3.19;49.29;101081.55;117344;1183;22934;-54
2022/02/26 06:05:00;;;;;;;36.20;22.60;;;;;;;3.31;49.34;101085.88;117340;1185;24156;-52
2022/02/26 06:07:32;;;;;;;33.70;21.70;;;;;;;3.49;49.60;101090.55;117291;1185;21898;-56
2022/02/26 06:10:00;;;;;;;32.10;21.40;;;;;;;3.67;49.73;101097.12;117347;1184;23540;-53
2022/02/26 06:12:29;;;;;;;32.20;21.40;;;;;;;3.86;49.83;101099.34;117331;1188;23528;-53
2022/02/26 06:15:02;;;;;;;31.90;19.40;;;;;;;4.02;49.79;101103.41;117349;1185;21885;-56
2022/02/26 06:17:31;;;;;;;30.50;20.00;;;;;;;4.17;49.59;101106.05;117499;1185;21879;-56
2022/02/26 06:19:59;;;;;;;26.50;17.80;;;;;;;4.32;49.68;101106.27;117294;1181;22650;-55
2022/02/26 06:22:31;;;;;;;35.10;20.80;;;;;;;4.50;49.75;101106.36;117270;1185;22848;-58
2022/02/26 06:25:12;;;;;;;32.80;21.90;;;;;;;4.71;49.88;101107.53;118346;1185;22930;-58
2022/02/26 06:27:41;;;;;;;31.40;21.50;;;;;;;4.88;49.74;101107.41;117365;1185;23566;-54
2022/02/26 06:30:10;;;;;;;29.10;19.50;;;;;;;5.03;49.86;101112.63;117352;1182;22250;-55
2022/02/26 06:32:39;;;;;;;29.70;19.10;;;;;;;5.16;49.83;101115.33;117331;1185;22438;-58
2022/02/26 06:35:10;;;;;;;29.10;18.40;;;;;;;5.26;49.60;101119.39;117288;1185;21854;-58
2022/02/26 06:37:39;;;;;;;27.60;17.80;;;;;;;5.33;49.45;101122.28;117347;1185;22107;-59
2022/02/26 06:40:08;;;;;;;28.50;17.60;;;;;;;5.40;49.30;101125.77;117348;1181;21916;-59
2022/02/26 06:42:36;;;;;;;29.60;18.90;;;;;;;5.47;49.39;101127.12;117392;1185;21847;-56
2022/02/26 06:45:05;;;;;;;27.70;17.10;;;;;;;5.50;49.54;101131.72;117353;1185;23471;-58
2022/02/26 06:47:34;;;;;;;27.20;17.40;;;;;;;5.65;49.85;101129.23;117492;1184;21861;-57
2022/02/26 06:50:03;;;;;;;29.20;18.20;;;;;;;5.89;49.74;101127.59;117266;1185;23566;-54
2022/02/26 06:52:31;;;;;;;28.10;17.40;;;;;;;6.08;50.02;101121.70;117313;1185;21951;-57
2022/02/26 06:54:59;;;;;;;35.10;23.40;;;;;;;6.27;49.71;101119.59;117285;1185;22896;-57
2022/02/26 06:57:42;;;;;;;41.90;27.40;;;;;;;6.54;49.79;101117.59;117450;1182;23583;-57
2022/02/26 07:00:12;;;;;;;34.90;23.50;;;;;;;6.75;49.65;101115.12;117333;1185;22914;-57
2022/02/26 07:02:41;;;;;;;28.70;18.90;;;;;;;6.92;49.80;101120.27;117331;1182;23461;-58
2022/02/26 07:05:09;;;;;;;27.60;17.40;;;;;;;7.08;49.67;101118.74;117284;1185;21928;-57
2022/02/26 07:07:38;;;;;;;24.60;16.50;;;;;;;7.22;49.55;101122.96;117257;1185;23437;-56
2022/02/26 07:10:07;;;;;;;28.80;17.60;;;;;;;7.32;49.71;101123.77;117389;1182;23538;-59
2022/02/26 07:12:39;;;;;;;27.20;17.50;;;;;;;7.36;49.90;101122.95;117297;1182;24137;-58
2022/02/26 07:15:07;;;;;;;27.90;17.10;;;;;;;7.46;49.57;101120.46;117357;1186;24685;-58
2022/02/26 07:17:39;;;;;;;29.80;18.40;;;;;;;7.62;49.99;101120.31;117360;1185;23630;-58
2022/02/26 07:20:08;;;;;;;24.70;17.20;;;;;;;7.83;49.80;101121.25;117468;1185;22971;-55
2022/02/26 07:22:37;;;;;;;26.00;16.80;;;;;;;8.06;49.93;101126.55;117354;1185;24153;-58
2022/02/26 07:25:06;;;;;;;25.30;17.70;;;;;;;8.26;49.95;101132.52;117303;1181;24228;-57
2022/02/26 07:27:34;;;;;;;29.00;18.80;;;;;;;8.39;49.74;101132.80;117387;1179;21862;-58
2022/02/26 07:30:03;;;;;;;27.20;18.10;;;;;;;8.47;49.73;101133.75;117434;1184;24194;-57
2022/02/26 07:32:41;;;;;;;24.30;16.90;;;;;;;8.54;49.65;101136.46;117303;1182;24149;-58
2022/02/26 07:35:11;;;;;;;26.70;15.90;;;;;;;8.58;49.77;101136.50;117306;1185;24135;-58
2022/02/26 07:37:39;;;;;;;24.20;16.00;;;;;;;8.68;49.92;101137.80;117347;1184;21869;-56
2022/02/26 07:40:14;;;;;;;28.70;15.80;;;;;;;8.86;49.84;101138.62;117295;1185;23459;-60
2022/02/26 07:42:48;;;;;;;25.30;16.40;;;;;;;9.13;50.04;101131.45;117247;1182;24290;-59
2022/02/26 07:45:16;;;;;;;20.70;14.90;;;;;;;9.39;50.01;101132.80;117342;1182;21909;-59
2022/02/26 07:47:49;;;;;;;;;;;;;;;9.60;49.94;101135.17;117423;1185;23545;-56
2022/02/26 07:50:17;;;;;;;;;;;;;;;9.82;50.05;101138.92;117287;1182;23507;-55
2022/02/26 07:52:48;;;;;;;22.90;14.60;;;;;;;10.05;50.02;101135.66;117362;1182;23017;-59
2022/02/26 07:55:16;;;;;;;22.00;13.60;;;;;;;10.22;49.91;101140.06;117094;1181;23437;-56
2022/02/26 07:57:45;;;;;;;20.50;14.20;;;;;;;10.41;49.94;101139.92;118700;1182;24748;-56
2022/02/26 08:00:14;;;;;;;21.10;14.30;;;;;;;10.60;49.89;101143.10;117339;1185;21845;-59
2022/02/26 08:02:44;;;;;;;23.00;15.60;;;;;;;10.66;49.68;101145.55;117350;1183;21844;-56
2022/02/26 08:05:12;;;;;;;25.00;14.80;;;;;;;10.78;49.66;101145.20;117417;1185;21849;-60
2022/02/26 08:07:45;;;;;;;20.50;13.70;;;;;;;10.93;49.65;101142.55;117356;1186;21852;-59
2022/02/26 08:10:14;;;;;;;22.70;15.30;;;;;;;11.09;49.59;101139.17;117345;1185;21847;-56
2022/02/26 08:12:43;;;;;;;20.40;13.70;;;;;;;11.23;49.69;101136.16;117310;1182;21860;-60
2022/02/26 08:15:12;;;;;;;20.80;14.70;;;;;;;11.40;49.82;101142.27;117404;1184;23558;-56
2022/02/26 08:18:00;;;;;;;21.80;14.60;;;;;;;11.53;49.56;101147.99;117329;1185;21858;-59
2022/02/26 08:20:28;;;;;;;19.10;13.70;;;;;;;11.66;49.52;101149.19;117349;1185;23463;-59
2022/02/26 08:22:56;;;;;;;17.10;12.50;;;;;;;11.69;49.40;101144.79;117332;1181;21857;-60
2022/02/26 08:25:25;;;;;;;18.60;13.20;;;;;;;11.66;49.11;101145.50;117327;1176;21857;-60
2022/02/26 08:27:54;;;;;;;21.50;13.60;;;;;;;11.64;49.15;101145.16;117351;1184;22651;-56
2022/02/26 08:30:22;;;;;;;17.70;12.40;;;;;;;11.62;48.99;101146.21;117344;1185;21847;-56
2022/02/26 08:32:50;;;;;;;18.00;13.30;;;;;;;11.62;49.09;101140.40;117383;1185;21915;-56
2022/02/26 08:35:19;;;;;;;20.30;12.50;;;;;;;11.69;49.19;101141.95;117398;1185;21892;-56
2022/02/26 08:37:47;;;;;;;18.90;13.80;;;;;;;11.78;48.90;101143.66;117380;1185;24207;-57
2022/02/26 08:40:15;;;;;;;15.70;12.00;;;;;;;11.93;49.07;101146.08;117347;1184;24157;-61
2022/02/26 08:42:44;;;;;;;19.70;11.90;;;;;;;12.21;49.22;101142.40;117314;1183;24756;-56
2022/02/26 08:45:12;;;;;;;15.80;11.90;;;;;;;12.48;49.30;101139.73;117379;1184;23402;-60
2022/02/26 08:47:42;;;;;;;17.30;12.20;;;;;;;12.70;49.26;101139.91;117366;1185;22001;-59
2022/02/26 08:50:30;;;;;;;19.30;13.00;;;;;;;12.99;49.20;101142.80;117090;1185;21865;-56
2022/02/26 08:52:59;;;;;;;17.70;12.60;;;;;;;13.23;49.19;101139.73;117247;1185;21862;-59
2022/02/26 08:55:28;;;;;;;13.60;10.60;;;;;;;13.50;49.19;101146.15;117323;1188;21959;-57
2022/02/26 08:57:58;;;;;;;16.60;12.10;;;;;;;13.67;48.98;101145.59;117930;1185;22565;-59
2022/02/26 09:00:26;;;;;;;16.30;12.10;;;;;;;13.70;48.47;101147.11;118197;1178;21964;-59
2022/02/26 09:02:54;;;;;;;17.40;12.20;;;;;;;13.59;48.20;101154.34;118223;1184;24159;-55
2022/02/26 09:05:24;;;;;;;15.60;12.10;;;;;;;13.45;48.05;101149.73;117273;1185;21864;-55
2022/02/26 09:07:52;;;;;;;19.10;11.60;;;;;;;13.29;47.89;101154.64;117308;1185;23510;-55
2022/02/26 09:10:20;;;;;;;20.30;12.10;;;;;;;13.14;47.98;101152.69;117329;1184;23452;-58
2022/02/26 09:12:50;;;;;;;17.10;11.70;;;;;;;13.04;48.14;101152.62;117285;1186;22913;-58
2022/02/26 09:15:18;;;;;;;17.80;11.70;;;;;;;13.09;48.25;101160.14;117308;1185;21868;-59
2022/02/26 09:17:52;;;;;;;15.40;10.80;;;;;;;13.19;48.33;101157.74;117305;1186;23457;-55
2022/02/26 09:20:21;;;;;;;16.10;11.50;;;;;;;13.27;48.27;101153.08;117326;1183;21857;-55
2022/02/26 09:22:49;;;;;;;15.00;10.90;;;;;;;13.45;48.49;101157.84;117352;1184;21847;-56
2022/02/26 09:25:18;;;;;;;16.50;11.20;;;;;;;13.65;48.45;101152.67;117300;1184;24158;-56
2022/02/26 09:27:47;;;;;;;14.10;11.40;;;;;;;13.83;48.45;101144.32;117326;1184;24145;-60
2022/02/26 09:30:17;;;;;;;17.20;12.10;;;;;;;14.03;48.51;101142.63;117408;1185;21923;-56
2022/02/26 09:32:47;;;;;;;18.60;13.20;;;;;;;14.19;48.34;101140.10;117373;1185;23541;-60
2022/02/26 09:35:16;;;;;;;27.60;16.70;;;;;;;14.36;48.22;101139.13;117454;1181;22646;-56
2022/02/26 09:37:44;;;;;;;17.90;12.20;;;;;;;14.45;47.94;101143.41;117213;1185;23598;-56
2022/02/26 09:40:12;;;;;;;16.90;11.40;;;;;;;14.51;48.07;101148.23;117381;1184;23553;-59
2022/02/26 09:42:41;;;;;;;20.30;12.70;;;;;;;14.68;48.23;101148.70;117356;1187;24160;-59
2022/02/26 09:45:10;;;;;;;20.00;14.60;;;;;;;14.75;48.11;101150.89;117394;1182;21841;-57
2022/02/26 09:47:39;;;;;;;15.90;11.90;;;;;;;14.76;48.00;101151.41;117301;1182;22909;-56
2022/02/26 09:50:09;;;;;;;23.70;15.30;;;;;;;14.87;48.21;101154.55;117295;1185;22932;-60
2022/02/26 09:52:39;;;;;;;17.90;12.10;;;;;;;15.02;48.06;101163.66;118518;1185;24194;-57
2022/02/26 09:55:08;;;;;;;19.70;13.00;;;;;;;15.16;48.14;101159.69;117198;1185;21846;-59
2022/02/26 09:57:37;;;;;;;14.30;9.80;;;;;;;15.31;47.99;101155.52;117358;1185;21857;-56
2022/02/26 10:00:13;;;;;;;16.20;10.20;;;;;;;15.44;47.99;101161.46;117304;1175;24173;-57
2022/02/26 10:02:45;;;;;;;15.00;10.30;;;;;;;15.53;47.90;101157.02;117442;1184;21856;-57
2022/02/26 10:05:14;;;;;;;15.50;10.60;;;;;;;15.56;47.78;101156.96;117301;1188;21840;-59
2022/02/26 10:07:44;;;;;;;12.30;8.60;;;;;;;15.67;47.85;101155.50;117358;1185;24155;-57
2022/02/26 10:10:19;;;;;;;12.30;8.60;;;;;;;15.84;47.92;101155.33;117325;1185;21873;-59
2022/02/26 10:12:52;;;;;;;15.30;9.30;;;;;;;16.00;47.77;101153.05;117220;1184;24143;-59
2022/02/26 10:15:40;;;;;;;13.30;8.20;;;;;;;16.10;47.68;101158.86;117319;1185;23542;-59
2022/02/26 10:18:11;;;;;;;12.60;8.30;;;;;;;16.25;47.86;101158.33;117371;1185;22931;-60
2022/02/26 10:20:49;;;;;;;15.90;10.90;;;;;;;16.40;47.33;101156.55;117278;1182;24162;-59
2022/02/26 10:23:23;;;;;;;12.60;8.60;;;;;;;16.36;47.02;101156.45;117321;1185;24138;-56
2022/02/26 10:25:51;;;;;;;14.00;8.00;;;;;;;16.33;46.99;101154.94;117373;1183;22928;-59
2022/02/26 10:28:19;;;;;;;10.20;7.60;;;;;;;16.23;46.83;101150.22;117333;1185;23615;-56
2022/02/26 10:30:49;;;;;;;16.10;10.30;;;;;;;16.10;46.57;101154.05;117154;1187;23438;-60
2022/02/26 10:33:25;;;;;;;12.90;9.50;;;;;;;15.87;46.53;101153.14;117320;1185;23541;-59
2022/02/26 10:35:59;;;;;;;12.80;8.80;;;;;;;15.69;46.47;101159.16;117331;1185;24156;-60
2022/02/26 10:38:29;;;;;;;15.20;9.60;;;;;;;15.62;46.60;101161.61;117478;1185;21861;-60
2022/02/26 10:41:08;;;;;;;16.00;9.30;;;;;;;15.70;46.73;101159.33;117230;1185;24125;-57
2022/02/26 10:43:44;;;;;;;10.30;7.10;;;;;;;15.82;46.93;101157.14;117316;1184;21858;-60
2022/02/26 10:46:21;;;;;;;10.30;8.40;;;;;;;16.08;47.09;101157.48;117413;1183;23659;-57
2022/02/26 10:48:53;;;;;;;10.30;7.70;;;;;;;16.31;46.92;101159.26;117363;1184;23297;-57
2022/02/26 10:51:24;;;;;;;11.30;7.30;;;;;;;16.50;46.67;101154.73;117336;1185;23542;-57
2022/02/26 10:53:52;;;;;;;10.50;7.20;;;;;;;16.63;46.58;101157.59;117319;1185;21862;-57
2022/02/26 10:56:20;;;;;;;12.60;7.80;;;;;;;16.63;46.17;101163.25;117357;1185;22597;-57
2022/02/26 10:58:48;;;;;;;9.90;6.90;;;;;;;16.47;45.89;101163.11;117293;1185;22944;-59
2022/02/26 11:01:16;;;;;;;10.70;7.30;;;;;;;16.40;46.11;101165.06;117319;1185;23432;-59
2022/02/26 11:03:45;;;;;;;9.80;7.10;;;;;;;16.53;46.39;101163.66;117267;1185;24283;-60
2022/02/26 11:06:13;;;;;;;13.10;9.30;;;;;;;16.62;46.10;101159.03;117316;1186;22621;-59
2022/02/26 11:08:43;;;;;;;17.50;9.10;;;;;;;16.63;46.18;101152.80;117268;1185;24145;-57
2022/02/26 11:11:12;;;;;;;13.10;8.40;;;;;;;16.75;46.37;101154.27;117322;1183;24800;-57
2022/02/26 11:13:43;;;;;;;15.30;10.30;;;;;;;16.93;46.35;101146.91;117354;1185;21851;-57
2022/02/26 11:16:12;;;;;;;12.50;7.60;;;;;;;17.05;46.07;101152.09;117233;1185;21856;-57
2022/02/26 11:18:45;;;;;;;14.70;8.30;;;;;;;16.86;45.49;101148.67;117339;1185;21945;-55
2022/02/26 11:21:28;;;;;;;16.10;9.00;;;;;;;16.47;45.26;101153.20;117284;1185;24187;-58
2022/02/26 11:23:57;;;;;;;12.80;7.80;;;;;;;16.17;45.42;101157.80;117269;1183;22615;-58